createdAt,value
2018-12-05T00:00:19.185Z,1.3
2018-12-05T00:02:19.340Z,0.4
2018-12-05T00:04:19.101Z,1.3
2018-12-05T00:06:18.643Z,1.2
2018-12-05T00:08:19.413Z,1.2
2018-12-05T00:10:18.679Z,1.1
2018-12-05T00:12:19.449Z,0.8
2018-12-05T00:14:19.228Z,1.1
2018-12-05T00:16:19.402Z,1.6
2018-12-05T00:18:19.242Z,1.1
2018-12-05T00:20:19.033Z,1.1
2018-12-05T00:22:18.808Z,1
2018-12-05T00:24:18.573Z,0.6
2018-12-05T00:26:19.401Z,1.3
2018-12-05T00:28:19.149Z,0.8
2018-12-05T00:30:18.922Z,0.5
2018-12-05T00:32:18.699Z,1.4
2018-12-05T00:34:19.460Z,1
2018-12-05T00:36:19.059Z,0.8
2018-12-05T00:38:18.817Z,1.3
2018-12-05T00:40:19.104Z,0.7
2018-12-05T00:42:18.880Z,1.4
2018-12-05T00:44:18.620Z,1
2018-12-05T00:46:18.757Z,1.3
2018-12-05T00:48:18.534Z,1.4
2018-12-05T00:50:19.386Z,1.2
2018-12-05T00:52:19.134Z,1
2018-12-05T00:54:18.910Z,0.5
2018-12-05T00:56:18.519Z,1
2018-12-05T00:58:19.298Z,1.2
2018-12-05T01:00:19.076Z,1.6
2018-12-05T01:02:18.838Z,1.1
2018-12-05T01:04:18.589Z,1
2018-12-05T01:06:19.206Z,1
2018-12-05T01:08:18.972Z,1.5
2018-12-05T01:10:19.240Z,1
2018-12-05T01:12:18.977Z,1.5
2018-12-05T01:14:18.746Z,1.9
2018-12-05T01:16:18.645Z,1
2018-12-05T01:18:19.495Z,1.4
2018-12-05T01:20:19.277Z,1.4
2018-12-05T01:22:19.048Z,1.1
2018-12-05T01:24:18.823Z,0.6
2018-12-05T01:26:19.224Z,0.9
2018-12-05T01:28:18.964Z,0.6
2018-12-05T01:30:18.748Z,1.1
2018-12-05T01:32:18.600Z,1.1
2018-12-05T01:34:19.360Z,0.8
2018-12-05T01:36:19.040Z,1.3
2018-12-05T01:38:18.823Z,1.8
2018-12-05T01:40:19.092Z,0.8
2018-12-05T01:42:18.878Z,1.2
2018-12-05T01:44:18.677Z,1.9
2018-12-05T01:46:18.791Z,1.4
2018-12-05T01:48:18.557Z,1.2
2018-12-05T01:50:19.306Z,0.9
2018-12-05T01:52:19.061Z,1.2
2018-12-05T01:54:18.825Z,1.6
2018-12-05T01:56:19.487Z,1.2
2018-12-05T01:58:19.244Z,1.4
2018-12-05T02:00:18.996Z,0.9
2018-12-05T02:02:18.755Z,1.2
2018-12-05T02:04:18.523Z,1.8
2018-12-05T02:06:18.561Z,1
2018-12-05T02:08:19.330Z,0.6
2018-12-05T02:10:18.559Z,1.3
2018-12-05T02:12:19.338Z,1.7
2018-12-05T02:14:19.075Z,1.2
2018-12-05T02:16:18.777Z,0.9
2018-12-05T02:18:18.597Z,0.8
2018-12-05T02:20:19.367Z,1.1
2018-12-05T02:22:19.071Z,1
2018-12-05T02:24:18.807Z,1.6
2018-12-05T02:26:18.524Z,1
2018-12-05T02:28:19.262Z,1.1
2018-12-05T02:30:19.095Z,2
2018-12-05T03:42:18.365Z,1.8
2018-12-05T03:44:19.098Z,2
2018-12-05T03:46:19.286Z,1.4
2018-12-05T03:48:19.036Z,1.6
2018-12-05T03:50:18.860Z,1.2
2018-12-05T03:52:18.624Z,1.3
2018-12-05T03:54:19.381Z,1.4
2018-12-05T03:56:18.939Z,0.9
2018-12-05T03:58:18.709Z,0.8
2018-12-05T04:00:19.483Z,1.4
2018-12-05T04:02:19.239Z,1.5
2018-12-05T04:04:18.993Z,1.4
2018-12-05T04:06:19.181Z,1.1
2018-12-05T04:08:18.933Z,1
2018-12-05T04:10:19.215Z,1.5
2018-12-05T04:12:18.769Z,1.6
2018-12-05T04:14:18.532Z,1.7
2018-12-05T04:16:19.238Z,2.4
2018-12-05T04:18:19.061Z,1.2
2018-12-05T04:20:18.813Z,1.8
2018-12-05T04:22:18.536Z,1.8
2018-12-05T04:24:19.287Z,1.6
2018-12-05T04:26:18.900Z,0.9
2018-12-05T04:28:18.653Z,1.4
2018-12-05T04:30:19.429Z,1
2018-12-05T04:32:19.180Z,1.5
2018-12-05T04:34:18.926Z,1.9
2018-12-05T04:36:18.986Z,1.4
2018-12-05T04:38:18.747Z,1.4
2018-12-05T04:40:19.014Z,1.4
2018-12-05T04:42:18.786Z,1.8
2018-12-05T04:44:18.550Z,1.3
2018-12-05T04:46:18.669Z,1.2
2018-12-05T04:48:19.405Z,1.8
2018-12-05T04:50:19.171Z,1.8
2018-12-05T04:52:18.944Z,1.2
2018-12-05T04:54:18.687Z,1
2018-12-05T04:56:19.234Z,1.1
2018-12-05T04:58:18.988Z,2.4
2018-12-05T05:00:18.752Z,1.5
2018-12-05T05:02:18.514Z,1.7
2018-12-05T05:04:19.289Z,1.4
2018-12-05T05:06:18.958Z,0.9
2018-12-05T05:08:18.712Z,1.5
2018-12-05T05:10:18.946Z,2
2018-12-05T05:12:18.695Z,1.5
2018-12-05T05:14:18.548Z,1.9
2018-12-05T05:16:18.688Z,1.9
2018-12-05T05:18:18.514Z,1.1
2018-12-05T05:20:19.280Z,1.7
2018-12-05T05:22:19.103Z,1
2018-12-05T05:24:18.867Z,1.5
2018-12-05T05:26:18.928Z,2.4
2018-12-05T05:28:18.680Z,2
2018-12-05T05:30:19.440Z,2.1
2018-12-05T05:32:19.178Z,1.3
2018-12-05T05:34:18.939Z,1.6
2018-12-05T05:36:19.344Z,1.2
2018-12-05T05:38:19.132Z,1.4
2018-12-05T05:40:19.363Z,1.6
2018-12-05T05:42:19.087Z,1.2
2018-12-05T05:44:18.840Z,1.6
2018-12-05T05:46:18.894Z,1.6
2018-12-05T05:48:18.651Z,1.6
2018-12-05T05:50:20.635Z,1.8
2018-12-05T05:52:18.534Z,2
2018-12-05T05:54:19.291Z,1.1
2018-12-05T05:56:19.352Z,1.3
2018-12-05T05:58:19.121Z,1.5
2018-12-05T06:00:18.873Z,2.2
2018-12-05T06:02:20.282Z,2
2018-12-05T06:04:19.123Z,2.1
2018-12-05T06:06:18.705Z,1.6
2018-12-05T06:08:19.462Z,1.3
2018-12-05T06:10:18.717Z,2.1
2018-12-05T06:12:19.460Z,1.4
2018-12-05T06:14:19.226Z,1.7
2018-12-05T06:16:18.758Z,1.4
2018-12-05T06:18:18.550Z,1.3
2018-12-05T06:20:19.324Z,1.8
2018-12-05T06:22:19.112Z,1.3
2018-12-05T06:24:18.860Z,1.3
2018-12-05T06:26:18.690Z,1.6
2018-12-05T06:28:19.452Z,1.9
2018-12-05T06:30:19.240Z,1.6
2018-12-05T06:32:19.002Z,1.6
2018-12-05T06:34:18.747Z,2.4
2018-12-05T06:36:18.815Z,1.5
2018-12-05T06:38:18.556Z,1.2
2018-12-05T06:40:18.771Z,1
2018-12-05T06:42:18.514Z,1.6
2018-12-05T06:44:19.250Z,1.6
2018-12-05T06:46:18.722Z,1.4
2018-12-05T06:48:19.471Z,1
2018-12-05T06:50:19.214Z,1.1
2018-12-05T06:52:18.882Z,1.5
2018-12-05T06:54:18.628Z,1
2018-12-05T06:56:19.263Z,1.4
2018-12-05T06:58:19.012Z,2.1
2018-12-05T07:00:18.767Z,2
2018-12-05T07:02:18.505Z,1.5
2018-12-05T07:04:19.243Z,1.3
2018-12-05T07:06:18.862Z,1.3
2018-12-05T07:08:18.612Z,1.4
2018-12-05T07:10:18.862Z,1.8
2018-12-05T07:12:18.599Z,2
2018-12-05T07:14:19.330Z,1.3
2018-12-05T07:16:19.409Z,1.9
2018-12-05T07:18:19.241Z,1.3
2018-12-05T07:20:19.001Z,1.4
2018-12-05T07:22:18.752Z,2.1
2018-12-05T07:24:18.560Z,2.1
2018-12-05T07:26:19.331Z,1.6
2018-12-05T07:28:19.092Z,1.7
2018-12-05T07:30:18.887Z,1.8
2018-12-05T07:32:18.639Z,1.3
2018-12-05T07:34:19.397Z,1.8
2018-12-05T07:36:19.138Z,2.8
2018-12-05T07:38:19.499Z,1.6
2018-12-05T07:40:18.940Z,1.7
2018-12-05T07:42:18.711Z,1.5
2018-12-05T07:44:19.469Z,1.9
2018-12-05T07:46:18.649Z,1.5
2018-12-05T07:48:19.393Z,1.7
2018-12-05T07:50:19.146Z,2.2
2018-12-05T07:52:18.891Z,1.8
2018-12-05T07:54:18.655Z,1.4
2018-12-05T07:56:19.128Z,1.4
2018-12-05T07:58:18.894Z,2
2018-12-05T08:00:18.723Z,1.7
2018-12-05T08:02:19.280Z,1.7
2018-12-05T08:04:19.042Z,1.9
2018-12-05T08:06:19.409Z,2
2018-12-05T08:08:19.176Z,2.2
2018-12-05T08:10:19.491Z,2.6
2018-12-05T08:12:19.075Z,2.6
2018-12-05T08:14:18.866Z,2.2
2018-12-05T08:16:19.264Z,2.5
2018-12-05T08:18:19.074Z,2.9
2018-12-05T08:20:18.900Z,2.9
2018-12-05T08:22:18.652Z,2.4
2018-12-05T08:24:19.428Z,2.9
2018-12-05T08:26:18.990Z,1.7
2018-12-05T08:28:18.770Z,2.4
2018-12-05T08:30:18.517Z,1.9
2018-12-05T08:32:19.263Z,2.8
2018-12-05T08:34:19.014Z,1.9
2018-12-05T08:36:19.425Z,2.4
2018-12-05T08:38:19.174Z,2.3
2018-12-05T08:40:19.512Z,3.4
2018-12-05T08:42:19.270Z,3.3
2018-12-05T08:44:19.069Z,3.5
2018-12-05T08:46:18.842Z,3.2
2018-12-05T08:48:18.588Z,3.1
2018-12-05T08:50:19.355Z,3.2
2018-12-05T08:52:19.104Z,3.8
2018-12-05T08:54:21.153Z,2.4
2018-12-05T08:56:19.050Z,2.5
2018-12-05T08:58:18.821Z,2.3
2018-12-05T09:00:18.595Z,2.9
2018-12-05T09:02:18.680Z,3.1
2018-12-05T09:04:19.443Z,1.8
2018-12-05T09:06:18.649Z,2
2018-12-05T09:08:19.382Z,1.8
2018-12-05T09:10:18.680Z,2.8
2018-12-05T09:12:19.448Z,2.7
2018-12-05T09:14:19.211Z,2.5
2018-12-05T09:16:18.919Z,2.7
2018-12-05T09:18:18.743Z,2.3
2018-12-05T09:20:18.477Z,2.1
2018-12-05T09:22:19.235Z,1.4
2018-12-05T09:24:18.987Z,2.4
2018-12-05T09:26:19.124Z,2.5
2018-12-05T09:28:18.885Z,2.4
2018-12-05T09:30:18.638Z,2.4
2018-12-05T09:32:19.421Z,2.8
2018-12-05T09:34:19.171Z,2
2018-12-05T09:36:19.216Z,2.3
2018-12-05T09:38:18.973Z,1.9
2018-12-05T09:40:19.220Z,1.9
2018-12-05T09:42:18.983Z,1.6
2018-12-05T09:44:18.750Z,1.8
2018-12-05T09:46:19.504Z,1.8
2018-12-05T09:48:19.268Z,2.1
2018-12-05T09:50:19.043Z,1.7
2018-12-05T09:52:18.814Z,2
2018-12-05T09:54:18.573Z,2.4
2018-12-05T09:56:18.983Z,2.1
2018-12-05T09:58:18.743Z,1.8
2018-12-05T10:00:18.520Z,2.1
2018-12-05T10:02:19.278Z,1.8
2018-12-05T10:04:19.051Z,2.2
2018-12-05T10:06:18.751Z,1.9
2018-12-05T10:08:18.530Z,2
2018-12-05T10:10:18.802Z,1.9
2018-12-05T10:12:18.562Z,1.6
2018-12-05T10:14:19.329Z,2.1
2018-12-05T10:16:18.992Z,2.4
2018-12-05T10:18:18.824Z,2.4
2018-12-05T10:20:18.587Z,1.6
2018-12-05T10:22:19.360Z,1.9
2018-12-05T10:24:19.110Z,1.7
2018-12-05T10:26:19.341Z,1.5
2018-12-05T10:28:19.101Z,1.2
2018-12-05T10:30:18.862Z,2.4
2018-12-05T10:32:18.595Z,1.6
2018-12-05T10:34:19.373Z,1.5
2018-12-05T10:36:19.448Z,2.8
2018-12-05T10:38:19.206Z,1.6
2018-12-05T10:40:19.506Z,1.7
2018-12-05T10:42:19.290Z,1.9
2018-12-05T10:44:19.074Z,2.5
2018-12-05T10:46:18.652Z,2.2
2018-12-05T10:48:19.389Z,2.2
2018-12-05T10:50:19.143Z,2.5
2018-12-05T10:52:18.827Z,1.8
2018-12-05T10:54:18.585Z,1.4
2018-12-05T10:56:19.087Z,1.7
2018-12-05T10:58:18.863Z,1.9
2018-12-05T11:00:18.627Z,1.7
2018-12-05T11:02:19.368Z,2.5
2018-12-05T11:04:19.112Z,1.3
2018-12-05T11:06:19.081Z,1.6
2018-12-05T11:08:18.843Z,1.5
2018-12-05T11:10:19.103Z,1.2
2018-12-05T11:12:18.851Z,1.3
2018-12-05T11:14:18.596Z,2.1
2018-12-05T11:16:19.159Z,1.6
2018-12-05T11:18:18.971Z,1.3
2018-12-05T11:20:18.724Z,1.3
2018-12-05T11:22:19.374Z,1.7
2018-12-05T11:24:19.155Z,1.2
2018-12-05T11:26:19.251Z,0.9
2018-12-05T11:28:19.019Z,0.7
2018-12-05T11:30:18.813Z,1.4
2018-12-05T11:32:18.579Z,1.1
2018-12-05T11:34:19.378Z,0.7
2018-12-05T11:36:19.020Z,0.8
2018-12-05T11:38:18.777Z,1.4
2018-12-05T11:40:19.005Z,0.9
2018-12-05T11:42:18.785Z,1
2018-12-05T11:44:18.562Z,1
2018-12-05T11:46:18.974Z,0.7
2018-12-05T11:48:18.742Z,1.1
2018-12-05T11:50:18.513Z,1
2018-12-05T11:52:19.169Z,0.9
2018-12-05T11:54:18.917Z,1.1
2018-12-05T11:56:19.484Z,1.2
2018-12-05T11:58:19.262Z,1.1
2018-12-05T12:00:19.022Z,1.1
2018-12-05T12:02:22.243Z,1.1
2018-12-05T12:04:19.226Z,1.2
2018-12-05T12:06:19.275Z,1.5
2018-12-05T12:08:19.042Z,0.9
2018-12-05T12:10:19.308Z,0.9
2018-12-05T12:12:19.058Z,2
2018-12-05T12:14:18.785Z,0.8
2018-12-05T12:16:18.933Z,0.7
2018-12-05T12:18:18.752Z,1.2
2018-12-05T12:20:18.535Z,0.9
2018-12-05T12:22:19.303Z,1.2
2018-12-05T12:24:19.079Z,1.1
2018-12-05T12:26:18.596Z,1
2018-12-05T12:28:19.338Z,1.6
2018-12-05T12:30:19.136Z,1
2018-12-05T12:32:18.887Z,0.6
2018-12-05T12:34:18.649Z,0.9
2018-12-05T12:36:19.454Z,0.8
2018-12-05T12:38:19.238Z,1.1
2018-12-05T12:40:19.500Z,0.8
2018-12-05T12:42:19.280Z,1.1
2018-12-05T12:44:19.056Z,1.3
2018-12-05T12:46:19.393Z,1
2018-12-05T12:48:19.167Z,1.9
2018-12-05T12:50:18.926Z,1.2
2018-12-05T12:52:18.676Z,1.1
2018-12-05T12:54:19.434Z,1.4
2018-12-05T12:56:19.148Z,1.5
2018-12-05T12:58:18.933Z,1.3
2018-12-05T13:00:18.691Z,0.8
2018-12-05T13:02:19.485Z,1
2018-12-05T13:04:19.268Z,0.9
2018-12-05T13:06:18.534Z,1.5
2018-12-05T13:08:19.298Z,0.9
2018-12-05T13:10:18.527Z,1.4
2018-12-05T13:12:19.273Z,1.7
2018-12-05T13:14:19.066Z,1.6
2018-12-05T13:16:18.757Z,1.8
2018-12-05T13:18:19.713Z,1.2
2018-12-05T13:20:18.688Z,1.3
2018-12-05T13:22:19.443Z,1.6
2018-12-05T13:24:19.218Z,1.8
2018-12-05T13:26:18.790Z,1.4
2018-12-05T13:28:18.577Z,1
2018-12-05T13:30:19.365Z,1.5
2018-12-05T13:32:19.114Z,1.4
2018-12-05T13:34:18.880Z,2.7
2018-12-05T13:36:19.446Z,2.1
2018-12-05T13:38:19.221Z,2.1
2018-12-05T13:40:19.469Z,2.7
2018-12-05T13:42:19.259Z,1.6
2018-12-05T13:44:19.014Z,1.7
2018-12-05T13:46:18.651Z,1.9
2018-12-05T13:48:19.431Z,2
2018-12-05T13:50:19.188Z,2
2018-12-05T13:52:18.937Z,2.4
2018-12-05T13:54:18.692Z,1.6
2018-12-05T13:56:19.251Z,1.7
2018-12-05T13:58:19.043Z,1.8
2018-12-05T14:00:18.814Z,2.3
2018-12-05T14:02:18.581Z,1.9
2018-12-05T14:04:19.318Z,2.6
2018-12-05T14:06:18.877Z,2.6
2018-12-05T14:08:18.668Z,2.1
2018-12-05T14:10:18.912Z,2
2018-12-05T14:12:18.715Z,1.9
2018-12-05T14:14:19.467Z,1.2
2018-12-05T14:16:18.739Z,2
2018-12-05T14:18:18.583Z,1.7
2018-12-05T14:20:19.380Z,1.3
2018-12-05T14:22:19.156Z,2
2018-12-05T14:24:18.902Z,1.2
2018-12-05T14:26:19.205Z,2.2
2018-12-05T14:28:18.964Z,2.2
2018-12-05T14:30:18.767Z,2.5
2018-12-05T14:32:19.276Z,2.5
2018-12-05T14:34:19.036Z,2.3
2018-12-05T14:36:19.126Z,2.4
2018-12-05T14:38:18.878Z,3
2018-12-05T14:40:19.156Z,1.8
2018-12-05T14:42:18.931Z,2.3
2018-12-05T14:44:18.708Z,1.7
2018-12-05T14:46:19.226Z,3
2018-12-05T14:48:19.009Z,2.5
2018-12-05T14:50:18.816Z,2.2
2018-12-05T14:52:18.594Z,2
2018-12-05T14:54:19.336Z,2.2
2018-12-05T14:56:19.081Z,2.3
2018-12-05T14:58:18.847Z,2.3
2018-12-05T15:00:18.627Z,1.9
2018-12-05T15:02:19.378Z,2.2
2018-12-05T15:04:19.139Z,2
2018-12-05T15:06:19.236Z,2.7
2018-12-05T15:08:18.994Z,1.9
2018-12-05T15:10:19.272Z,2.5
2018-12-05T15:12:19.040Z,2.6
2018-12-05T15:14:18.791Z,3
2018-12-05T15:16:19.191Z,1.7
2018-12-05T15:18:19.008Z,1.4
2018-12-05T15:20:18.825Z,1.7
2018-12-05T15:22:18.613Z,2.1
2018-12-05T15:24:19.399Z,2.5
2018-12-05T15:26:18.999Z,3
2018-12-05T15:28:18.793Z,2.6
2018-12-05T15:30:18.548Z,1.7
2018-12-05T15:32:19.285Z,1.3
2018-12-05T15:34:19.052Z,2
2018-12-05T15:36:18.567Z,2.9
2018-12-05T15:38:19.312Z,3.4
2018-12-05T15:40:18.538Z,2.7
2018-12-05T15:42:19.403Z,2.1
2018-12-05T15:44:19.158Z,3.7
2018-12-05T15:46:18.624Z,2.5
2018-12-05T15:48:20.746Z,2.7
2018-12-05T15:50:18.670Z,3
2018-12-05T15:52:19.439Z,3.4
2018-12-05T15:54:19.213Z,2.7
2018-12-05T15:56:19.360Z,2.9
2018-12-05T15:58:19.135Z,3.6
2018-12-05T16:00:18.994Z,3.3
2018-12-05T16:02:18.765Z,2.1
2018-12-05T16:04:18.613Z,4
2018-12-05T16:06:19.360Z,2.9
2018-12-05T16:08:19.189Z,2.8
2018-12-05T16:10:19.405Z,3.5
2018-12-05T16:12:19.170Z,2.8
2018-12-05T16:14:18.915Z,3.4
2018-12-05T16:16:19.009Z,3.6
2018-12-05T16:18:18.867Z,3.1
2018-12-05T16:20:18.655Z,2.7
2018-12-05T16:22:19.431Z,4
2018-12-05T16:24:19.191Z,2.6
2018-12-05T16:26:19.312Z,2.7
2018-12-05T16:28:19.077Z,3.3
2018-12-05T16:30:18.846Z,2.4
2018-12-05T16:32:18.592Z,2.8
2018-12-05T16:34:19.355Z,3
2018-12-05T16:36:19.388Z,2.9
2018-12-05T16:38:19.154Z,3.5
2018-12-05T16:40:19.430Z,2.8
2018-12-05T16:42:19.178Z,2.6
2018-12-05T16:44:18.963Z,2
2018-12-05T16:46:18.480Z,2.6
2018-12-05T16:48:19.228Z,2.1
2018-12-05T16:50:18.974Z,2.6
2018-12-05T16:52:18.735Z,2.1
2018-12-05T16:54:19.493Z,3.2
2018-12-05T16:56:18.566Z,2.8
2018-12-05T16:58:19.298Z,2.5
2018-12-05T17:00:19.080Z,2.7
2018-12-05T17:02:18.827Z,2.4
2018-12-05T17:04:18.700Z,2.3
2018-12-05T17:06:19.317Z,3.7
2018-12-05T17:08:19.076Z,2.1
2018-12-05T17:10:19.333Z,2.8
2018-12-05T17:12:19.078Z,2.9
2018-12-05T17:14:18.860Z,2.7
2018-12-05T17:16:19.424Z,3.6
2018-12-05T17:18:19.250Z,2.9
2018-12-05T17:20:19.069Z,3.4
2018-12-05T17:22:18.658Z,2.8
2018-12-05T17:24:19.412Z,3.4
2018-12-05T17:26:18.913Z,3.1
2018-12-05T17:28:18.657Z,2.9
2018-12-05T17:30:19.451Z,3
2018-12-05T17:32:19.214Z,2.7
2018-12-05T17:34:18.936Z,2.3
2018-12-05T17:36:19.116Z,2.5
2018-12-05T17:38:18.860Z,3.7
2018-12-05T17:40:19.128Z,3.2
2018-12-05T17:42:18.905Z,3.2
2018-12-05T17:44:18.646Z,2.5
2018-12-05T17:46:18.659Z,2.7
2018-12-05T17:48:19.406Z,2.4
2018-12-05T17:50:19.250Z,3
2018-12-05T17:52:19.013Z,2.6
2018-12-05T17:54:18.748Z,2.7
2018-12-05T17:56:19.155Z,2.5
2018-12-05T17:58:18.914Z,2.7
2018-12-05T18:00:18.648Z,2.8
2018-12-05T18:02:19.402Z,2.4
2018-12-05T18:04:19.156Z,2.5
2018-12-05T18:06:18.733Z,2.4
2018-12-05T18:08:18.499Z,3.2
2018-12-05T18:10:18.733Z,2.5
2018-12-05T18:12:18.487Z,1.9
2018-12-05T18:14:19.245Z,3.3
2018-12-05T18:16:19.299Z,2.5
2018-12-05T18:18:19.128Z,2.5
2018-12-05T18:20:18.926Z,2.6
2018-12-05T18:22:18.666Z,2
2018-12-05T18:24:19.400Z,2.6
2018-12-05T18:26:19.323Z,2.2
2018-12-05T18:28:19.127Z,2.8
2018-12-05T18:30:18.861Z,2.3
2018-12-05T18:32:18.623Z,2.4
2018-12-05T18:34:19.403Z,2.5
2018-12-05T18:36:18.961Z,2.6
2018-12-05T18:38:18.678Z,3
2018-12-05T18:40:18.870Z,2.6
2018-12-05T18:42:18.581Z,2.5
2018-12-05T18:44:19.317Z,2.4
2018-12-05T18:46:19.442Z,2.4
2018-12-05T18:48:19.167Z,2
2018-12-05T18:50:18.912Z,2.7
2018-12-05T18:52:18.489Z,2.3
2018-12-05T18:54:19.202Z,3.1
2018-12-05T18:56:19.225Z,2.1
2018-12-05T18:58:18.941Z,2.5
2018-12-05T19:00:18.715Z,2.4
2018-12-05T19:02:19.445Z,2.5
2018-12-05T19:04:19.166Z,2.9
2018-12-05T19:06:18.797Z,2.7
2018-12-05T19:08:18.518Z,2.6
2018-12-05T19:10:18.698Z,2.4
2018-12-05T19:12:19.413Z,2.6
2018-12-05T19:14:19.313Z,2.2
2018-12-05T19:16:19.417Z,1.4
2018-12-05T19:18:19.215Z,2.3
2018-12-05T19:20:18.959Z,2.5
2018-12-05T19:22:18.670Z,3.2
2018-12-05T19:24:19.397Z,1.7
2018-12-05T19:26:18.544Z,2.8
2018-12-05T19:28:19.266Z,2.2
2018-12-05T19:30:18.989Z,2.1
2018-12-05T19:32:18.716Z,1.9
2018-12-05T19:34:19.437Z,2.6
2018-12-05T19:36:18.865Z,2.1
2018-12-05T19:38:18.586Z,2.1
2018-12-05T19:40:18.780Z,3.1
2018-12-05T19:42:18.487Z,3
2018-12-05T19:44:19.199Z,3
2018-12-05T19:46:18.717Z,3.2
2018-12-05T19:48:19.440Z,3.3
2018-12-05T19:50:19.187Z,2.1
2018-12-05T19:52:18.916Z,3.4
2018-12-05T19:54:18.625Z,2.9
2018-12-05T19:56:19.060Z,2.3
2018-12-05T19:58:18.784Z,3.4
2018-12-05T20:00:18.508Z,3.9
2018-12-05T20:02:19.216Z,3.5
2018-12-05T20:04:18.935Z,4.1
2018-12-05T20:06:19.292Z,4.4
2018-12-05T20:08:19.006Z,4.3
2018-12-05T20:10:19.237Z,2.8
2018-12-05T20:12:18.962Z,2.9
2018-12-05T20:14:18.669Z,3.1
2018-12-05T20:16:18.671Z,2.8
2018-12-05T20:18:18.480Z,3.2
2018-12-05T20:20:19.286Z,3.2
2018-12-05T20:22:19.001Z,3.2
2018-12-05T20:24:18.737Z,2.9
2018-12-05T20:26:19.180Z,3.2
2018-12-05T20:28:18.889Z,3.1
2018-12-05T20:30:18.627Z,3.3
2018-12-05T20:32:19.224Z,3.4
2018-12-05T20:34:18.931Z,3.5
2018-12-05T20:36:19.389Z,4.3
2018-12-05T20:38:19.110Z,2.9
2018-12-05T20:40:19.286Z,3.8
2018-12-05T20:42:19.009Z,2.4
2018-12-05T20:44:18.745Z,2.9
2018-12-05T20:46:19.260Z,3.1
2018-12-05T20:48:18.973Z,3.5
2018-12-05T20:50:18.714Z,4
2018-12-05T20:52:19.433Z,3.3
2018-12-05T20:54:19.137Z,3.4
2018-12-05T20:56:19.162Z,2.9
2018-12-05T20:58:18.885Z,3.1
2018-12-05T21:00:18.598Z,2
2018-12-05T21:02:19.331Z,3.3
2018-12-05T21:04:19.060Z,3.1
2018-12-05T21:06:18.593Z,3.3
2018-12-05T21:08:19.405Z,3
2018-12-05T21:10:18.709Z,2.2
2018-12-05T21:12:19.422Z,2.6
2018-12-05T21:14:19.148Z,3.2
2018-12-05T21:16:18.921Z,2.3
2018-12-05T21:18:18.723Z,2.8
2018-12-05T21:20:19.483Z,2.7
2018-12-05T21:22:19.195Z,2.4
2018-12-05T21:24:18.901Z,2.6
2018-12-05T21:26:19.375Z,3.2
2018-12-05T21:28:19.354Z,3.6
2018-12-05T21:30:19.142Z,2.8
2018-12-05T21:32:18.840Z,2.5
2018-12-05T21:34:18.527Z,2.3
2018-12-05T21:36:19.402Z,3.1
2018-12-05T21:38:19.085Z,3.1
2018-12-05T21:40:19.213Z,2.9
2018-12-05T21:42:18.897Z,2.2
2018-12-05T21:44:18.577Z,1.9
2018-12-05T21:46:18.938Z,2.7
2018-12-05T21:48:18.633Z,1.9
2018-12-05T21:50:19.377Z,1.9
2018-12-05T21:52:19.088Z,1.8
2018-12-05T21:54:18.827Z,2.2
2018-12-05T21:56:18.727Z,2.3
2018-12-05T21:58:19.418Z,1.9
2018-12-05T22:00:19.141Z,3.2
2018-12-05T22:02:18.842Z,1.8
2018-12-05T22:04:18.536Z,2.1
2018-12-05T22:06:18.999Z,2.2
2018-12-05T22:08:20.140Z,1.9
2018-12-05T22:10:19.391Z,1.7
2018-12-05T22:12:19.092Z,1.5
2018-12-05T22:14:18.770Z,3.4
2018-12-05T22:16:19.178Z,2.3
2018-12-05T22:18:18.927Z,1.7
2018-12-05T22:20:18.649Z,2.4
2018-12-05T22:22:19.333Z,3.1
2018-12-05T22:24:19.017Z,2.3
2018-12-05T22:26:19.419Z,1.5
2018-12-05T22:28:19.104Z,2.5
2018-12-05T22:30:18.805Z,2.3
2018-12-05T22:32:18.493Z,2.1
2018-12-05T22:34:19.203Z,2.2
2018-12-05T22:36:18.554Z,3
2018-12-05T22:38:19.250Z,2.9
2018-12-05T22:40:19.417Z,2.1
2018-12-05T22:42:19.120Z,2.5
2018-12-05T22:44:18.818Z,1.6
2018-12-05T22:46:19.172Z,1.6
2018-12-05T22:48:18.850Z,2.7
2018-12-05T22:50:18.585Z,2
2018-12-05T22:52:19.282Z,3
2018-12-05T22:54:18.973Z,2.2
2018-12-05T22:56:19.349Z,2.4
2018-12-05T22:58:19.045Z,2
2018-12-05T23:00:18.756Z,2.9
2018-12-05T23:02:18.438Z,2.4
2018-12-05T23:04:19.137Z,2.8
2018-12-05T23:06:19.352Z,2.8
2018-12-05T23:08:19.041Z,2.4
2018-12-05T23:10:19.221Z,2.8
2018-12-05T23:12:18.908Z,2.4
2018-12-05T23:14:18.598Z,1.7
2018-12-05T23:16:18.646Z,1.8
2018-12-05T23:18:19.392Z,3.2
2018-12-05T23:20:19.145Z,2.2
2018-12-05T23:22:18.835Z,2.8
2018-12-05T23:24:18.523Z,2.9
2018-12-05T23:26:19.049Z,2.5
2018-12-05T23:28:18.777Z,3.5
2018-12-05T23:30:18.495Z,2.7
2018-12-05T23:32:19.183Z,3.2
2018-12-05T23:34:18.871Z,2.8
2018-12-05T23:36:18.737Z,2.8
2018-12-05T23:38:19.424Z,3
2018-12-05T23:40:18.558Z,2.6
2018-12-05T23:42:19.256Z,3
2018-12-05T23:44:18.942Z,2.9
2018-12-05T23:46:19.386Z,2.7
2018-12-05T23:48:19.091Z,1.7
2018-12-05T23:50:18.820Z,1.6
2018-12-05T23:52:18.517Z,3.8
2018-12-05T23:54:19.230Z,2.3
2018-12-05T23:56:18.651Z,2.3
2018-12-05T23:58:19.340Z,2.6
